KECP

Northwest Florida Beaches International Airport

Panama City, Florida, USA
METAR KECP 231453Z VRB03KT 9SM -RA BKN026 OVC035 26/23 A3009 RMK AO2 RAB29E40B53 SLP200 P0000 60000 T02610228 53009
Observed Flight Rules
May-23 @ 14:53 UTC (17 minutes ago) Marginal Visual Flight Rules
Wind Visibility Clouds Conditions
Variable at 3 knots 9 miles
  • Broken at 2,600' AGL
  • Overcast at 3,500' AGL
  • Light Rain
Temperatures Readings Precipitation
Current 26°C / 79°F
Dewpoint 23°C / 73°F
Humidity 84%
Altimeter 30.09" Hg
Pressure 1020 hPa
Elevation 21
Current Rain 0.005
METAR KECP 231453Z VRB03KT 9SM -RA BKN026 OVC035 26/23 A3009 RMK AO2 RAB29E40B53 SLP200 P0000 60000 T02610228 53009
Observed Flight Rules
May-23 @ 14:53 UTC
(17 minutes ago)
MVFR
Wind Visibility
Variable at 3 knots 9 miles
Clouds
  • Broken at 2,600' AGL
  • Overcast at 3,500' AGL
Conditions
  • Light Rain
Temperature Dewpoint
26°C / 79°F 23°C / 73°F
Humidity Altimeter Pressure
84% 30.09" Hg 1020 hPa
Current Rain
0.005